createdAt,value
2022-09-13T00:00:44.093Z,5.30
2022-09-13T00:03:12.354Z,5.40
2022-09-13T00:05:39.962Z,5.35
2022-09-13T00:08:07.822Z,5.38
2022-09-13T00:10:39.540Z,5.20
2022-09-13T00:13:08.209Z,5.55
2022-09-13T00:15:36.292Z,5.72
2022-09-13T00:18:03.422Z,5.57
2022-09-13T00:20:30.222Z,5.32
2022-09-13T00:22:56.936Z,5.60
2022-09-13T00:25:23.663Z,5.47
2022-09-13T00:27:50.615Z,5.68
2022-09-13T00:30:17.413Z,4.53
2022-09-13T00:32:44.481Z,5.28
2022-09-13T00:35:11.457Z,4.57
2022-09-13T00:37:39.182Z,5.32
2022-09-13T00:40:07.203Z,6.80
2022-09-13T00:42:34.238Z,4.78
2022-09-13T00:45:16.839Z,5.05
2022-09-13T00:47:53.668Z,5.03
2022-09-13T00:50:34.103Z,4.93
2022-09-13T00:53:11.359Z,5.05
2022-09-13T00:56:01.658Z,5.32
2022-09-13T00:58:36.578Z,4.40
2022-09-13T01:01:05.285Z,4.55
2022-09-13T01:03:35.201Z,5.40
2022-09-13T01:06:10.036Z,4.70
2022-09-13T01:08:37.998Z,4.80
2022-09-13T01:11:11.936Z,4.65
2022-09-13T01:13:39.444Z,4.95
2022-09-13T01:16:06.709Z,4.55
2022-09-13T01:18:33.426Z,5.53
2022-09-13T01:21:57.190Z,4.82
2022-09-13T01:24:41.711Z,4.65
2022-09-13T01:27:29.497Z,4.57
2022-09-13T01:30:18.097Z,4.75
2022-09-13T01:33:05.872Z,4.55
2022-09-13T01:36:04.764Z,4.90
2022-09-13T01:38:37.449Z,4.70
2022-09-13T01:41:23.010Z,4.65
2022-09-13T01:44:25.615Z,4.60
2022-09-13T01:47:15.213Z,4.60
2022-09-13T01:49:58.624Z,4.45
2022-09-13T01:52:53.126Z,4.78
2022-09-13T01:55:35.633Z,4.50
2022-09-13T01:58:05.274Z,4.50
2022-09-13T02:00:38.359Z,4.25
2022-09-13T02:03:11.424Z,4.15
2022-09-13T02:05:40.741Z,4.85
2022-09-13T02:08:17.255Z,4.03
2022-09-13T02:10:55.008Z,4.90
2022-09-13T02:13:27.556Z,4.47
2022-09-13T02:16:00.521Z,4.43
2022-09-13T02:18:38.986Z,4.60
2022-09-13T02:21:39.164Z,4.43
2022-09-13T02:24:17.886Z,4.70
2022-09-13T02:26:46.907Z,4.20
2022-09-13T02:29:18.058Z,4.20
2022-09-13T02:32:14.710Z,4.40
2022-09-13T02:34:59.460Z,4.65
2022-09-13T02:37:30.146Z,4.22
2022-09-13T02:40:02.911Z,5.05
2022-09-13T02:42:47.988Z,4.40
2022-09-13T02:45:15.361Z,4.40
2022-09-13T02:47:57.461Z,4.25
2022-09-13T02:50:46.346Z,4.25
2022-09-13T02:53:19.369Z,4.90
2022-09-13T02:55:55.169Z,4.30
2022-09-13T02:58:59.275Z,4.47
2022-09-13T03:01:26.187Z,4.45
2022-09-13T03:03:56.204Z,4.82
2022-09-13T03:06:28.820Z,4.68
2022-09-13T03:08:59.995Z,5.63
2022-09-13T03:11:41.651Z,5.20
2022-09-13T03:14:22.069Z,5.68
2022-09-13T03:17:24.085Z,5.60
2022-09-13T03:19:59.475Z,5.15
2022-09-13T03:25:26.035Z,5.28
2022-09-13T03:27:59.504Z,4.85
2022-09-13T03:30:26.408Z,5.13
2022-09-13T03:32:58.960Z,5.55
2022-09-13T03:35:40.408Z,4.70
2022-09-13T03:38:16.334Z,4.97
2022-09-13T03:40:55.524Z,5.00
2022-09-13T03:43:36.031Z,5.57
2022-09-13T03:46:15.441Z,4.53
2022-09-13T03:48:43.158Z,4.72
2022-09-13T03:51:11.196Z,4.47
2022-09-13T03:53:47.062Z,4.95
2022-09-13T03:56:15.993Z,4.30
2022-09-13T03:58:43.883Z,5.18
2022-09-13T04:01:10.743Z,4.95
2022-09-13T04:03:38.592Z,4.63
2022-09-13T04:06:06.145Z,5.03
2022-09-13T04:08:33.415Z,4.88
2022-09-13T04:11:00.745Z,4.82
2022-09-13T04:13:28.477Z,5.32
2022-09-13T04:15:55.517Z,4.57
2022-09-13T04:18:22.263Z,5.03
2022-09-13T04:20:59.842Z,5.50
2022-09-13T04:23:28.348Z,4.55
2022-09-13T04:25:55.357Z,5.15
2022-09-13T04:28:23.337Z,4.63
2022-09-13T04:30:50.229Z,4.82
2022-09-13T04:33:19.978Z,5.25
2022-09-13T04:35:47.124Z,4.70
2022-09-13T04:38:13.795Z,5.05
2022-09-13T04:40:40.648Z,4.93
2022-09-13T04:43:07.353Z,5.65
2022-09-13T04:45:34.027Z,5.28
2022-09-13T04:48:00.894Z,5.53
2022-09-13T04:50:27.513Z,5.50
2022-09-13T04:52:56.984Z,5.10
2022-09-13T04:55:25.950Z,5.03
2022-09-13T04:57:56.484Z,5.28
2022-09-13T05:00:25.019Z,6.28
2022-09-13T05:02:56.547Z,6.35
2022-09-13T05:05:23.772Z,6.10
2022-09-13T05:07:51.480Z,5.75
2022-09-13T05:10:19.640Z,6.05
2022-09-13T05:12:46.943Z,5.75
2022-09-13T05:15:13.736Z,6.90
2022-09-13T05:17:40.336Z,7.05
2022-09-13T05:20:07.616Z,6.35
2022-09-13T05:22:34.369Z,7.03
2022-09-13T05:25:01.056Z,7.05
2022-09-13T05:27:27.796Z,7.30
2022-09-13T05:29:54.420Z,7.90
2022-09-13T05:32:21.160Z,7.55
2022-09-13T05:34:47.911Z,6.75
2022-09-13T05:37:14.554Z,7.75
2022-09-13T05:40:00.706Z,7.10
2022-09-13T05:42:27.939Z,8.07
2022-09-13T05:44:54.671Z,7.20
2022-09-13T05:47:21.366Z,6.85
2022-09-13T05:50:08.905Z,6.80
2022-09-13T05:52:35.792Z,8.18
2022-09-13T05:55:02.568Z,7.25
2022-09-13T05:57:29.336Z,8.25
2022-09-13T05:59:56.036Z,6.90
2022-09-13T06:02:22.809Z,6.85
2022-09-13T06:04:50.831Z,7.45
2022-09-13T06:07:17.831Z,7.60
2022-09-13T06:09:45.268Z,8.30
2022-09-13T06:12:11.957Z,7.95
2022-09-13T06:14:38.644Z,7.65
2022-09-13T06:17:06.371Z,7.32
2022-09-13T06:19:33.127Z,7.95
2022-09-13T06:21:59.788Z,8.48
2022-09-13T06:24:26.445Z,8.60
2022-09-13T06:26:53.963Z,8.88
2022-09-13T06:29:21.003Z,8.75
2022-09-13T06:31:47.674Z,9.27
2022-09-13T06:34:15.637Z,10.70
2022-09-13T06:36:42.850Z,10.75
2022-09-13T06:39:09.679Z,10.13
2022-09-13T06:41:37.435Z,9.43
2022-09-13T06:44:04.857Z,10.82
2022-09-13T06:46:34.368Z,9.65
2022-09-13T06:49:03.863Z,9.02
2022-09-13T06:51:31.095Z,8.27
2022-09-13T06:53:58.491Z,8.05
2022-09-13T06:56:30.866Z,8.30
2022-09-13T06:59:04.679Z,7.80
2022-09-13T07:01:33.735Z,8.02
2022-09-13T07:04:03.627Z,7.45
2022-09-13T07:06:33.120Z,7.25
2022-09-13T07:09:01.508Z,6.85
2022-09-13T07:11:34.968Z,7.13
2022-09-13T07:14:01.854Z,7.03
2022-09-13T07:16:30.596Z,7.18
2022-09-13T07:19:03.051Z,6.80
2022-09-13T07:21:29.800Z,6.43
2022-09-13T07:23:57.103Z,6.90
2022-09-13T07:26:24.762Z,5.82
2022-09-13T07:28:56.321Z,6.70
2022-09-13T07:31:28.960Z,6.80
2022-09-13T07:33:57.868Z,5.93
2022-09-13T07:36:25.213Z,6.53
2022-09-13T07:38:51.990Z,5.68
2022-09-13T07:41:21.156Z,5.75
2022-09-13T07:43:48.401Z,5.47
2022-09-13T07:46:22.481Z,4.78
2022-09-13T07:48:49.939Z,5.03
2022-09-13T07:51:20.753Z,5.28
2022-09-13T07:53:51.485Z,4.47
2022-09-13T07:56:22.287Z,5.10
2022-09-13T07:58:50.559Z,5.60
2022-09-13T08:01:27.685Z,5.10
2022-09-13T08:04:03.314Z,4.60
2022-09-13T08:06:32.230Z,5.32
2022-09-13T08:08:59.129Z,4.60
2022-09-13T08:11:33.150Z,4.38
2022-09-13T08:14:00.736Z,4.43
2022-09-13T08:16:29.107Z,4.63
2022-09-13T08:18:58.091Z,5.18
2022-09-13T08:21:26.235Z,5.38
2022-09-13T08:23:56.882Z,4.60
2022-09-13T08:26:23.828Z,4.45
2022-09-13T08:28:55.194Z,4.57
2022-09-13T08:31:23.046Z,5.43
2022-09-13T08:33:50.121Z,4.88
2022-09-13T08:36:17.874Z,6.15
2022-09-13T08:38:48.679Z,6.40
2022-09-13T08:41:37.132Z,5.60
2022-09-13T08:44:26.548Z,7.13
2022-09-13T08:47:18.467Z,5.80
2022-09-13T08:49:50.122Z,6.30
2022-09-13T08:52:39.382Z,7.35
2022-09-13T08:55:20.203Z,6.50
2022-09-13T08:58:16.089Z,6.03
2022-09-13T09:00:51.207Z,5.75
2022-09-13T09:03:41.355Z,6.63
2022-09-13T09:06:14.898Z,6.10
2022-09-13T09:09:04.486Z,5.18
2022-09-13T09:12:09.504Z,6.13
2022-09-13T09:14:42.759Z,8.60
2022-09-13T09:17:18.307Z,7.32
2022-09-13T09:19:55.388Z,7.53
2022-09-13T09:22:25.874Z,7.13
2022-09-13T09:24:56.982Z,6.90
2022-09-13T09:27:24.032Z,7.78
2022-09-13T09:29:58.212Z,7.20
2022-09-13T09:32:43.051Z,10.43
2022-09-13T09:35:12.868Z,9.15
2022-09-13T09:37:41.170Z,7.18
2022-09-13T09:40:13.676Z,7.38
2022-09-13T09:42:45.289Z,9.48
2022-09-13T09:45:34.349Z,9.40
2022-09-13T09:48:07.116Z,11.20
2022-09-13T09:50:39.247Z,14.23
2022-09-13T09:53:29.411Z,10.45
2022-09-13T09:56:18.798Z,11.70
2022-09-13T09:58:46.619Z,10.95
2022-09-13T10:01:26.034Z,9.38
2022-09-13T10:04:04.174Z,10.07
2022-09-13T10:06:31.418Z,9.05
2022-09-13T10:09:14.811Z,8.23
2022-09-13T10:11:51.219Z,7.38
2022-09-13T10:14:41.788Z,9.93
2022-09-13T10:17:21.291Z,8.25
2022-09-13T10:19:59.316Z,7.18
2022-09-13T10:22:27.632Z,8.30
2022-09-13T10:24:54.976Z,6.40
2022-09-13T10:27:36.162Z,6.07
2022-09-13T10:30:06.419Z,7.35
2022-09-13T10:32:33.882Z,7.07
2022-09-13T10:35:15.875Z,5.90
2022-09-13T10:37:44.887Z,6.32
2022-09-13T10:40:28.763Z,5.35
2022-09-13T10:42:59.061Z,5.50
2022-09-13T10:45:28.574Z,5.35
2022-09-13T10:48:04.954Z,6.28
2022-09-13T10:50:32.179Z,5.95
2022-09-13T10:53:00.387Z,4.43
2022-09-13T10:55:40.876Z,5.65
2022-09-13T10:58:07.653Z,5.38
2022-09-13T11:00:53.195Z,7.22
2022-09-13T11:06:20.957Z,7.40
2022-09-13T11:08:56.458Z,5.75
2022-09-13T11:11:53.613Z,5.10
2022-09-13T11:14:56.659Z,4.65
2022-09-13T11:17:36.594Z,5.53
2022-09-13T11:20:15.343Z,4.50
2022-09-13T11:23:18.713Z,4.20
2022-09-13T11:25:51.908Z,4.07
2022-09-13T11:28:38.789Z,4.25
2022-09-13T11:31:08.234Z,4.05
2022-09-13T11:33:54.296Z,4.65
2022-09-13T11:37:14.916Z,3.67
2022-09-13T11:40:01.328Z,4.05
2022-09-13T11:42:39.284Z,2.95
2022-09-13T11:45:08.959Z,3.30
2022-09-13T11:48:06.561Z,4.00
2022-09-13T11:50:39.795Z,3.63
2022-09-13T11:53:30.524Z,2.97
2022-09-13T11:56:20.351Z,2.72
2022-09-13T11:59:15.392Z,2.80
2022-09-13T12:01:47.558Z,2.85
2022-09-13T12:04:55.015Z,2.75
2022-09-13T12:07:57.848Z,3.17
2022-09-13T12:10:29.439Z,2.35
2022-09-13T12:12:58.529Z,2.67
2022-09-13T12:15:39.884Z,2.58
2022-09-13T12:18:13.423Z,2.60
2022-09-13T12:20:47.315Z,2.70
2022-09-13T12:23:37.451Z,2.50
2022-09-13T12:26:19.041Z,2.10
2022-09-13T12:28:54.555Z,2.60
2022-09-13T12:31:28.440Z,2.28
2022-09-13T12:33:58.039Z,2.13
2022-09-13T12:36:55.760Z,2.30
2022-09-13T12:39:34.549Z,2.00
2022-09-13T12:42:18.180Z,1.90
2022-09-13T12:44:50.453Z,1.92
2022-09-13T12:47:20.252Z,2.40
2022-09-13T12:50:41.874Z,1.77
2022-09-13T12:53:22.955Z,1.98
2022-09-13T12:56:27.412Z,1.70
2022-09-13T12:59:01.214Z,1.75
2022-09-13T13:01:30.981Z,2.07
2022-09-13T13:04:09.671Z,2.10
2022-09-13T13:06:49.376Z,1.90
2022-09-13T13:09:43.582Z,1.60
2022-09-13T13:12:37.436Z,2.15
2022-09-13T13:15:07.766Z,1.73
2022-09-13T13:17:34.404Z,1.85
2022-09-13T13:20:21.282Z,1.60
2022-09-13T13:22:52.082Z,1.80
2022-09-13T13:26:07.593Z,2.90
2022-09-13T13:28:50.707Z,2.17
2022-09-13T13:31:29.939Z,1.88
2022-09-13T13:34:14.831Z,1.80
2022-09-13T13:36:41.444Z,1.95
2022-09-13T13:39:42.059Z,2.25
2022-09-13T13:42:28.156Z,1.92
2022-09-13T13:44:54.788Z,1.73
2022-09-13T13:47:21.436Z,1.95
2022-09-13T13:49:53.695Z,1.58
2022-09-13T13:52:22.611Z,1.85
2022-09-13T13:54:55.525Z,1.90
2022-09-13T13:57:38.928Z,1.67
2022-09-13T14:00:20.901Z,1.65
2022-09-13T14:02:50.568Z,1.60
2022-09-13T14:05:22.718Z,1.77
2022-09-13T14:08:10.765Z,2.08
2022-09-13T14:11:04.435Z,1.48
2022-09-13T14:13:41.981Z,2.30
2022-09-13T14:16:37.288Z,1.75
2022-09-13T14:19:24.091Z,2.05
2022-09-13T14:22:20.815Z,2.58
2022-09-13T14:24:55.679Z,1.90
2022-09-13T14:27:26.768Z,2.65
2022-09-13T14:29:56.291Z,2.20
2022-09-13T14:32:28.994Z,2.17
2022-09-13T14:35:01.912Z,1.90
2022-09-13T14:37:34.491Z,2.20
2022-09-13T14:40:15.906Z,2.40
2022-09-13T14:42:44.989Z,2.40
2022-09-13T14:45:30.999Z,2.40
2022-09-13T14:48:24.147Z,2.80
2022-09-13T14:50:57.292Z,2.30
2022-09-13T14:53:30.723Z,2.63
2022-09-13T14:56:08.059Z,2.65
2022-09-13T14:58:56.622Z,2.78
2022-09-13T15:01:30.106Z,2.80
2022-09-13T15:03:58.742Z,2.63
2022-09-13T15:06:31.581Z,2.45
2022-09-13T15:09:21.583Z,2.90
2022-09-13T15:11:54.195Z,2.70
2022-09-13T15:14:31.302Z,3.00
2022-09-13T15:17:07.222Z,3.10
2022-09-13T15:19:44.185Z,3.40
2022-09-13T15:22:25.999Z,2.42
2022-09-13T15:24:55.544Z,2.53
2022-09-13T15:27:24.479Z,2.60
2022-09-13T15:29:56.723Z,2.40
2022-09-13T15:32:31.037Z,2.20
2022-09-13T15:34:59.510Z,1.90
2022-09-13T15:37:44.460Z,2.70
2022-09-13T15:40:21.965Z,2.20
2022-09-13T15:42:49.802Z,2.30
2022-09-13T15:45:18.735Z,2.10
2022-09-13T15:47:47.786Z,1.90
2022-09-13T15:50:26.842Z,2.13
2022-09-13T15:52:55.438Z,2.38
2022-09-13T15:55:22.802Z,2.08
2022-09-13T15:57:49.941Z,2.10
2022-09-13T16:00:26.228Z,2.00
2022-09-13T16:02:53.214Z,1.90
2022-09-13T16:05:20.758Z,1.98
2022-09-13T16:07:47.511Z,1.95
2022-09-13T16:10:18.819Z,1.70
2022-09-13T16:12:45.885Z,1.80
2022-09-13T16:15:14.488Z,2.42
2022-09-13T16:17:41.887Z,2.20
2022-09-13T16:20:12.743Z,1.73
2022-09-13T16:22:39.383Z,2.33
2022-09-13T16:25:06.639Z,2.47
2022-09-13T16:27:34.237Z,2.10
2022-09-13T16:30:01.166Z,1.92
2022-09-13T16:32:27.864Z,1.85
2022-09-13T16:34:54.513Z,1.98
2022-09-13T16:37:21.256Z,2.30
2022-09-13T16:39:47.987Z,2.10
2022-09-13T16:42:17.398Z,1.95
2022-09-13T16:44:44.564Z,2.13
2022-09-13T16:47:11.408Z,2.13
2022-09-13T16:49:38.120Z,2.65
2022-09-13T16:52:05.459Z,2.63
2022-09-13T16:54:35.070Z,2.10
2022-09-13T16:57:03.828Z,1.95
2022-09-13T16:59:31.577Z,2.10
2022-09-13T17:01:58.367Z,1.98
2022-09-13T17:04:25.441Z,1.90
2022-09-13T17:06:52.194Z,2.20
2022-09-13T17:09:21.097Z,1.80
2022-09-13T17:11:47.877Z,2.28
2022-09-13T17:14:17.534Z,2.30
2022-09-13T17:16:47.522Z,2.20
2022-09-13T17:19:18.903Z,2.05
2022-09-13T17:21:46.469Z,2.05
2022-09-13T17:24:13.865Z,2.28
2022-09-13T17:26:41.800Z,2.10
2022-09-13T17:29:08.698Z,2.38
2022-09-13T17:31:35.791Z,2.38
2022-09-13T17:34:02.579Z,2.63
2022-09-13T17:36:29.280Z,2.13
2022-09-13T17:38:57.392Z,2.92
2022-09-13T17:41:25.624Z,2.42
2022-09-13T17:43:53.549Z,2.47
2022-09-13T17:46:23.821Z,3.38
2022-09-13T17:48:52.352Z,3.05
2022-09-13T17:51:28.763Z,2.30
2022-09-13T17:54:04.542Z,3.63
2022-09-13T17:56:34.148Z,2.28
2022-09-13T17:59:10.007Z,2.47
2022-09-13T18:01:40.296Z,2.05
2022-09-13T18:04:08.373Z,2.45
2022-09-13T18:06:36.556Z,2.92
2022-09-13T18:09:03.586Z,2.92
2022-09-13T18:11:30.257Z,9.00
2022-09-13T18:13:57.023Z,6.32
2022-09-13T18:16:26.168Z,6.22
2022-09-13T18:18:53.493Z,5.47
2022-09-13T18:21:22.318Z,3.72
2022-09-13T18:23:51.024Z,2.83
2022-09-13T18:26:21.405Z,2.67
2022-09-13T18:28:54.137Z,2.63
2022-09-13T18:31:20.879Z,2.40
2022-09-13T18:33:48.088Z,1.92
2022-09-13T18:36:17.637Z,2.20
2022-09-13T18:38:46.044Z,1.83
2022-09-13T18:41:14.564Z,2.15
2022-09-13T18:43:42.753Z,1.52
2022-09-13T18:46:12.806Z,1.70
2022-09-13T18:48:45.743Z,1.90
2022-09-13T18:51:17.969Z,1.55
2022-09-13T18:53:45.812Z,1.70
2022-09-13T18:56:14.735Z,1.70
2022-09-13T18:58:42.870Z,1.73
2022-09-13T19:01:19.265Z,1.63
2022-09-13T19:03:54.927Z,1.90
2022-09-13T19:06:25.414Z,1.60
2022-09-13T19:08:53.647Z,1.80
2022-09-13T19:11:44.592Z,1.52
2022-09-13T19:14:09.548Z,2.17
2022-09-13T19:16:36.534Z,1.48
2022-09-13T19:19:03.329Z,1.58
2022-09-13T19:21:31.993Z,1.70
2022-09-13T19:24:04.056Z,1.52
2022-09-13T19:26:37.621Z,1.77
2022-09-13T19:29:11.064Z,1.92
2022-09-13T19:31:41.711Z,2.10
2022-09-13T19:34:09.563Z,1.75
2022-09-13T19:36:39.139Z,1.77
2022-09-13T19:39:07.457Z,1.70
2022-09-13T19:41:35.484Z,1.60
2022-09-13T19:44:03.800Z,1.60
2022-09-13T19:46:35.771Z,1.83
2022-09-13T19:49:04.332Z,1.88
2022-09-13T19:51:34.593Z,1.50
2022-09-13T19:54:01.947Z,2.03
2022-09-13T19:56:32.613Z,2.00
2022-09-13T19:59:00.462Z,1.90
2022-09-13T20:01:29.959Z,1.63
2022-09-13T20:04:02.165Z,1.65
2022-09-13T20:06:33.604Z,1.80
2022-09-13T20:09:01.555Z,1.80
2022-09-13T20:11:29.077Z,1.67
2022-09-13T20:13:59.287Z,1.60
2022-09-13T20:16:29.236Z,1.70
2022-09-13T20:18:59.699Z,2.00
2022-09-13T20:21:28.716Z,1.90
2022-09-13T20:24:02.318Z,1.48
2022-09-13T20:26:31.807Z,1.77
2022-09-13T20:29:02.133Z,1.48
2022-09-13T20:31:31.044Z,1.90
2022-09-13T20:34:00.146Z,1.63
2022-09-13T20:36:29.679Z,1.50
2022-09-13T20:39:02.383Z,1.60
2022-09-13T20:41:30.387Z,1.50
2022-09-13T20:43:59.654Z,1.70
2022-09-13T20:46:26.573Z,1.45
2022-09-13T20:48:53.417Z,1.52
2022-09-13T20:51:22.225Z,1.23
2022-09-13T20:53:54.255Z,1.60
2022-09-13T20:56:20.921Z,1.60
2022-09-13T20:58:57.369Z,1.77
2022-09-13T21:01:25.704Z,1.60
2022-09-13T21:03:54.455Z,1.65
2022-09-13T21:06:22.903Z,1.80
2022-09-13T21:08:50.222Z,1.48
2022-09-13T21:11:24.415Z,1.50
2022-09-13T21:13:53.877Z,1.38
2022-09-13T21:16:23.403Z,1.20
2022-09-13T21:18:50.924Z,1.50
2022-09-13T21:21:20.792Z,1.67
2022-09-13T21:23:48.023Z,1.58
2022-09-13T21:26:17.394Z,1.40
2022-09-13T21:28:44.623Z,1.48
2022-09-13T21:31:17.196Z,1.45
2022-09-13T21:33:47.584Z,1.60
2022-09-13T21:36:14.668Z,1.13
2022-09-13T21:38:41.318Z,1.35
2022-09-13T21:41:17.852Z,1.40
2022-09-13T21:43:45.334Z,1.35
2022-09-13T21:46:21.450Z,1.30
2022-09-13T21:48:50.517Z,1.20
2022-09-13T21:51:23.278Z,1.27
2022-09-13T21:53:58.463Z,1.52
2022-09-13T21:56:27.899Z,1.52
2022-09-13T21:59:00.092Z,1.65
2022-09-13T22:01:29.725Z,1.45
2022-09-13T22:03:57.249Z,1.10
2022-09-13T22:06:24.762Z,1.27
2022-09-13T22:08:55.301Z,1.60
2022-09-13T22:11:24.728Z,1.10
2022-09-13T22:13:52.297Z,1.30
2022-09-13T22:16:28.293Z,1.55
2022-09-13T22:18:57.661Z,1.50
2022-09-13T22:21:27.676Z,1.80
2022-09-13T22:23:54.611Z,1.08
2022-09-13T22:26:30.838Z,1.45
2022-09-13T22:28:58.552Z,1.63
2022-09-13T22:31:31.172Z,2.20
2022-09-13T22:34:02.300Z,1.65
2022-09-13T22:36:29.522Z,1.73
2022-09-13T22:38:56.718Z,1.50
2022-09-13T22:41:31.752Z,1.48
2022-09-13T22:43:59.647Z,1.15
2022-09-13T22:46:32.868Z,1.60
2022-09-13T22:49:00.587Z,1.35
2022-09-13T22:51:27.858Z,1.38
2022-09-13T22:53:55.025Z,1.10
2022-09-13T22:56:27.314Z,1.30
2022-09-13T22:58:55.830Z,1.30
2022-09-13T23:01:23.784Z,1.10
2022-09-13T23:03:51.030Z,1.15
2022-09-13T23:06:20.120Z,1.27
2022-09-13T23:08:48.737Z,1.35
2022-09-13T23:11:18.174Z,1.30
2022-09-13T23:13:46.820Z,1.48
2022-09-13T23:16:16.692Z,1.08
2022-09-13T23:18:43.788Z,1.15
2022-09-13T23:21:10.548Z,1.30
2022-09-13T23:23:37.736Z,1.30
2022-09-13T23:26:07.137Z,1.30
2022-09-13T23:28:34.080Z,1.08
2022-09-13T23:31:18.489Z,1.60
2022-09-13T23:33:48.364Z,1.25
2022-09-13T23:36:22.186Z,1.65
2022-09-13T23:38:51.696Z,1.42
2022-09-13T23:41:19.152Z,1.45
2022-09-13T23:43:46.599Z,1.20
2022-09-13T23:46:14.119Z,1.33
2022-09-13T23:48:43.850Z,1.40
2022-09-13T23:51:12.853Z,1.55
2022-09-13T23:53:40.096Z,1.40
2022-09-13T23:56:08.139Z,1.00
2022-09-13T23:58:36.317Z,1.30
